Time,TemperatureF,DewpointF,PressureIn,WindDirection,WindDirectionDegrees,WindSpeedMPH,WindSpeedGustMPH,Humidity,HourlyPrecipIn,Conditions,Clouds,dailyrainin,SoftwareType,DateUTC
2013-03-13 00:04:00,24.3,19.6,30.40,WNW,300,7.0,9.0,82,0.00,,,0.00,meteohub,2013-03-13 05:04:00,
2013-03-13 00:09:00,23.7,18.7,30.40,WNW,293,6.0,10.0,81,0.00,,,0.00,meteohub,2013-03-13 05:09:00,
2013-03-13 00:14:00,23.5,18.9,30.40,WNW,289,6.0,10.0,82,0.00,,,0.00,meteohub,2013-03-13 05:14:00,
2013-03-13 00:19:00,23.4,18.7,30.40,WNW,294,8.0,10.0,82,0.00,,,0.00,meteohub,2013-03-13 05:19:00,
2013-03-13 00:25:00,23.2,18.9,30.40,WNW,294,6.0,8.0,83,0.00,,,0.00,meteohub,2013-03-13 05:25:00,
2013-03-13 00:30:00,23.2,18.9,30.40,WNW,298,6.0,8.0,83,0.00,,,0.00,meteohub,2013-03-13 05:30:00,
2013-03-13 00:35:00,23.2,18.9,30.40,WNW,297,7.0,8.0,83,0.00,,,0.00,meteohub,2013-03-13 05:35:00,
2013-03-13 00:40:00,23.2,19.0,30.40,WNW,298,6.0,7.0,84,0.00,,,0.00,meteohub,2013-03-13 05:40:00,
2013-03-13 00:45:00,23.2,19.0,30.40,WNW,301,7.0,7.0,84,0.00,,,0.00,meteohub,2013-03-13 05:45:00,
2013-03-13 00:50:00,23.2,19.0,30.40,WNW,302,8.0,8.0,84,0.00,,,0.00,meteohub,2013-03-13 05:50:00,
2013-03-13 00:56:00,23.0,18.9,30.40,WNW,294,7.0,9.0,84,0.00,,,0.00,meteohub,2013-03-13 05:56:00,
2013-03-13 01:01:00,22.8,18.7,30.40,WNW,296,7.0,9.0,84,0.00,,,0.00,meteohub,2013-03-13 06:01:00,
2013-03-13 01:06:00,22.8,18.7,30.40,WNW,295,7.0,9.0,84,0.00,,,0.00,meteohub,2013-03-13 06:06:00,
2013-03-13 01:11:00,22.5,18.3,30.40,WNW,289,6.0,9.0,84,0.00,,,0.00,meteohub,2013-03-13 06:11:00,
2013-03-13 01:17:00,22.3,18.1,30.40,WNW,285,6.0,8.0,84,0.00,,,0.00,meteohub,2013-03-13 06:17:00,
2013-03-13 01:22:00,22.3,18.5,30.40,WNW,284,7.0,7.0,85,0.00,,,0.00,meteohub,2013-03-13 06:22:00,
2013-03-13 01:27:00,22.3,18.5,30.40,WNW,293,6.0,8.0,85,0.00,,,0.00,meteohub,2013-03-13 06:27:00,
2013-03-13 01:32:00,21.9,17.8,30.40,WNW,290,6.0,8.0,84,0.00,,,0.00,meteohub,2013-03-13 06:32:00,
2013-03-13 01:37:00,21.7,18.0,30.40,WNW,291,7.0,8.0,85,0.00,,,0.00,meteohub,2013-03-13 06:37:00,
2013-03-13 01:42:00,21.6,17.8,30.40,WNW,288,7.0,8.0,85,0.00,,,0.00,meteohub,2013-03-13 06:42:00,
2013-03-13 01:47:00,21.6,17.8,30.40,WNW,302,8.0,9.0,85,0.00,,,0.00,meteohub,2013-03-13 06:47:00,
2013-03-13 01:52:00,21.2,17.6,30.40,WNW,300,9.0,9.0,86,0.00,,,0.00,meteohub,2013-03-13 06:52:00,
2013-03-13 01:58:00,20.8,17.2,30.40,WNW,296,10.0,10.0,86,0.00,,,0.00,meteohub,2013-03-13 06:58:00,
2013-03-13 02:03:00,20.7,17.1,30.41,WNW,289,8.0,10.0,86,0.00,,,0.00,meteohub,2013-03-13 07:03:00,
2013-03-13 02:08:00,20.5,16.9,30.41,WNW,297,10.0,10.0,86,0.00,,,0.00,meteohub,2013-03-13 07:08:00,
2013-03-13 02:13:00,20.5,16.9,30.41,WNW,294,11.0,11.0,86,0.00,,,0.00,meteohub,2013-03-13 07:13:00,
2013-03-13 02:18:00,20.5,17.2,30.41,WNW,295,10.0,11.0,87,0.00,,,0.00,meteohub,2013-03-13 07:18:00,
2013-03-13 02:23:00,20.7,17.4,30.40,WNW,300,10.0,12.0,87,0.00,,,0.00,meteohub,2013-03-13 07:23:00,
2013-03-13 02:29:00,21.4,18.1,30.40,NW,313,11.0,12.0,87,0.00,,,0.00,meteohub,2013-03-13 07:29:00,
2013-03-13 02:34:00,21.7,18.1,30.41,WNW,302,12.0,12.0,86,0.00,,,0.00,meteohub,2013-03-13 07:34:00,
2013-03-13 02:39:00,22.3,20.3,30.41,NW,313,10.0,13.0,92,0.00,,,0.00,meteohub,2013-03-13 07:39:00,
2013-03-13 02:45:00,22.1,18.3,30.41,WNW,302,11.0,13.0,85,0.00,,,0.00,meteohub,2013-03-13 07:45:00,
2013-03-13 02:50:00,21.9,17.8,30.41,WNW,302,11.0,13.0,84,0.00,,,0.00,meteohub,2013-03-13 07:50:00,
2013-03-13 02:55:00,21.6,17.8,30.41,WNW,303,11.0,14.0,85,0.00,,,0.00,meteohub,2013-03-13 07:55:00,
2013-03-13 03:00:00,21.0,17.2,30.41,WNW,290,8.0,14.0,85,0.00,,,0.00,meteohub,2013-03-13 08:00:00,
2013-03-13 03:08:00,20.7,16.9,30.41,WNW,297,9.0,13.0,85,0.00,,,0.00,meteohub,2013-03-13 08:08:00,
2013-03-13 03:13:00,20.5,16.9,30.41,WNW,298,9.0,10.0,86,0.00,,,0.00,meteohub,2013-03-13 08:13:00,
2013-03-13 03:18:00,20.1,16.7,30.41,West,281,6.0,10.0,86,0.00,,,0.00,meteohub,2013-03-13 08:18:00,
2013-03-13 03:23:00,19.9,16.5,30.41,WNW,288,7.0,11.0,86,0.00,,,0.00,meteohub,2013-03-13 08:23:00,
2013-03-13 03:29:00,19.8,16.5,30.41,WNW,291,7.0,11.0,87,0.00,,,0.00,meteohub,2013-03-13 08:29:00,
2013-03-13 03:34:00,19.8,16.5,30.41,WNW,289,6.0,9.0,87,0.00,,,0.00,meteohub,2013-03-13 08:34:00,
2013-03-13 03:39:00,19.8,16.5,30.41,WNW,284,7.0,9.0,87,0.00,,,0.00,meteohub,2013-03-13 08:39:00,
2013-03-13 03:44:00,19.6,16.3,30.42,WNW,284,8.0,8.0,87,0.00,,,0.00,meteohub,2013-03-13 08:44:00,
2013-03-13 03:49:00,19.6,16.3,30.42,West,272,6.0,8.0,87,0.00,,,0.00,meteohub,2013-03-13 08:49:00,
2013-03-13 03:54:00,19.2,16.0,30.42,West,273,6.0,8.0,87,0.00,,,0.00,meteohub,2013-03-13 08:54:00,
2013-03-13 04:00:00,18.7,15.4,30.42,West,280,4.0,10.0,87,0.00,,,0.00,meteohub,2013-03-13 09:00:00,
2013-03-13 04:05:00,18.9,16.0,30.42,WNW,284,7.0,10.0,88,0.00,,,0.00,meteohub,2013-03-13 09:05:00,
2013-03-13 04:10:00,19.4,16.7,30.42,WNW,282,5.0,8.0,89,0.00,,,0.00,meteohub,2013-03-13 09:10:00,
2013-03-13 04:16:00,19.6,16.5,30.42,West,264,5.0,7.0,88,0.00,,,0.00,meteohub,2013-03-13 09:16:00,
2013-03-13 04:21:00,19.6,16.5,30.42,West,281,5.0,8.0,88,0.00,,,0.00,meteohub,2013-03-13 09:21:00,
2013-03-13 04:26:00,19.2,16.0,30.42,West,274,5.0,8.0,87,0.00,,,0.00,meteohub,2013-03-13 09:26:00,
2013-03-13 04:31:00,19.0,16.2,30.42,WNW,291,4.0,8.0,88,0.00,,,0.00,meteohub,2013-03-13 09:31:00,
2013-03-13 04:36:00,19.0,16.2,30.42,West,281,5.0,7.0,88,0.00,,,0.00,meteohub,2013-03-13 09:36:00,
2013-03-13 04:42:00,19.0,16.2,30.42,WNW,302,5.0,7.0,88,0.00,,,0.00,meteohub,2013-03-13 09:42:00,
2013-03-13 04:47:00,19.2,16.3,30.42,WNW,294,6.0,7.0,88,0.00,,,0.00,meteohub,2013-03-13 09:47:00,
2013-03-13 04:52:00,19.0,16.2,30.43,WNW,284,6.0,7.0,88,0.00,,,0.00,meteohub,2013-03-13 09:52:00,
2013-03-13 04:57:00,18.9,16.0,30.42,WNW,286,5.0,7.0,88,0.00,,,0.00,meteohub,2013-03-13 09:57:00,
2013-03-13 05:02:00,18.9,16.2,30.43,West,277,5.0,7.0,89,0.00,,,0.00,meteohub,2013-03-13 10:02:00,
2013-03-13 05:07:00,18.9,16.2,30.43,West,274,5.0,7.0,89,0.00,,,0.00,meteohub,2013-03-13 10:07:00,
2013-03-13 05:12:00,18.3,15.4,30.43,West,278,3.0,6.0,88,0.00,,,0.00,meteohub,2013-03-13 10:12:00,
2013-03-13 05:17:00,18.3,15.6,30.43,West,275,4.0,6.0,89,0.00,,,0.00,meteohub,2013-03-13 10:17:00,
2013-03-13 05:22:00,17.8,14.9,30.43,West,278,5.0,7.0,88,0.00,,,0.00,meteohub,2013-03-13 10:22:00,
2013-03-13 05:27:00,18.0,15.4,30.43,West,279,6.0,7.0,90,0.00,,,0.00,meteohub,2013-03-13 10:27:00,
2013-03-13 05:32:00,18.0,15.4,30.43,WNW,294,4.0,7.0,90,0.00,,,0.00,meteohub,2013-03-13 10:32:00,
2013-03-13 05:37:00,18.3,15.8,30.43,WNW,298,7.0,7.0,90,0.00,,,0.00,meteohub,2013-03-13 10:37:00,
2013-03-13 05:42:00,18.1,15.4,30.43,WNW,289,6.0,8.0,89,0.00,,,0.00,meteohub,2013-03-13 10:42:00,
2013-03-13 05:47:00,18.0,15.3,30.44,WNW,295,7.0,8.0,89,0.00,,,0.00,meteohub,2013-03-13 10:47:00,
2013-03-13 05:52:00,18.0,15.4,30.44,West,280,6.0,8.0,90,0.00,,,0.00,meteohub,2013-03-13 10:52:00,
2013-03-13 05:57:00,18.0,15.3,30.44,West,281,5.0,7.0,89,0.00,,,0.00,meteohub,2013-03-13 10:57:00,
2013-03-13 06:02:00,18.0,15.4,30.44,West,277,5.0,7.0,90,0.00,,,0.00,meteohub,2013-03-13 11:02:00,
2013-03-13 06:07:00,18.0,15.3,30.44,WSW,257,2.0,7.0,89,0.00,,,0.00,meteohub,2013-03-13 11:07:00,
2013-03-13 06:12:00,17.1,14.4,30.44,West,279,0.0,6.0,89,0.00,,,0.00,meteohub,2013-03-13 11:12:00,
2013-03-13 06:17:00,17.2,14.9,30.45,West,278,0.0,6.0,90,0.00,,,0.00,meteohub,2013-03-13 11:17:00,
2013-03-13 06:23:00,17.1,14.7,30.45,West,279,0.0,4.0,90,0.00,,,0.00,meteohub,2013-03-13 11:23:00,
2013-03-13 06:28:00,16.7,14.0,30.45,West,279,0.0,4.0,89,0.00,,,0.00,meteohub,2013-03-13 11:28:00,
2013-03-13 06:33:00,16.3,13.6,30.45,West,279,0.0,2.0,89,0.00,,,0.00,meteohub,2013-03-13 11:33:00,
2013-03-13 06:38:00,16.3,14.0,30.44,West,280,0.0,0.0,90,0.00,,,0.00,meteohub,2013-03-13 11:38:00,
2013-03-13 06:44:00,16.5,14.2,30.45,West,280,0.0,0.0,90,0.00,,,0.00,meteohub,2013-03-13 11:44:00,
2013-03-13 06:49:00,16.9,14.7,30.45,West,280,0.0,0.0,91,0.00,,,0.00,meteohub,2013-03-13 11:49:00,
2013-03-13 06:54:00,17.1,14.9,30.44,West,280,0.0,0.0,91,0.00,,,0.00,meteohub,2013-03-13 11:54:00,
2013-03-13 07:00:00,17.1,14.9,30.44,West,280,0.0,0.0,91,0.00,,,0.00,meteohub,2013-03-13 12:00:00,
2013-03-13 07:05:00,16.5,14.2,30.45,West,279,0.0,0.0,90,0.00,,,0.00,meteohub,2013-03-13 12:05:00,
2013-03-13 07:10:00,16.2,13.8,30.44,West,281,0.0,0.0,90,0.00,,,0.00,meteohub,2013-03-13 12:10:00,
2013-03-13 07:15:00,16.7,14.7,30.44,NNW,329,0.0,0.0,92,0.00,,,0.00,meteohub,2013-03-13 12:15:00,
2013-03-13 07:20:00,16.5,14.4,30.44,NNE,17,0.0,0.0,91,0.00,,,0.00,meteohub,2013-03-13 12:20:00,
2013-03-13 07:25:00,16.2,14.0,30.45,NNE,15,0.0,0.0,91,0.00,,,0.00,meteohub,2013-03-13 12:25:00,
2013-03-13 07:30:00,16.3,14.4,30.45,NNE,15,0.0,0.0,92,0.00,,,0.00,meteohub,2013-03-13 12:30:00,
2013-03-13 07:36:00,16.3,14.2,30.45,North,349,0.0,0.0,91,0.00,,,0.00,meteohub,2013-03-13 12:36:00,
2013-03-13 07:41:00,16.9,14.9,30.44,NNW,341,0.0,0.0,92,0.00,,,0.00,meteohub,2013-03-13 12:41:00,
2013-03-13 07:46:00,16.9,14.7,30.44,NNW,342,0.0,0.0,91,0.00,,,0.00,meteohub,2013-03-13 12:46:00,
2013-03-13 07:51:00,16.3,14.2,30.44,NNW,342,3.0,0.0,91,0.00,,,0.00,meteohub,2013-03-13 12:51:00,
2013-03-13 07:56:00,16.2,14.0,30.44,North,0,3.0,3.0,91,0.00,,,0.00,meteohub,2013-03-13 12:56:00,
2013-03-13 08:02:00,16.0,13.8,30.45,NNE,19,4.0,4.0,91,0.00,,,0.00,meteohub,2013-03-13 13:02:00,
2013-03-13 08:07:00,15.6,13.5,30.45,NNE,19,4.0,5.0,91,0.00,,,0.00,meteohub,2013-03-13 13:07:00,
2013-03-13 08:12:00,16.2,14.2,30.45,North,0,5.0,5.0,92,0.00,,,0.00,meteohub,2013-03-13 13:12:00,
2013-03-13 08:17:00,16.7,15.1,30.45,NNW,331,4.0,6.0,93,0.00,,,0.00,meteohub,2013-03-13 13:17:00,
2013-03-13 08:22:00,16.9,15.3,30.45,NNW,327,4.0,6.0,93,0.00,,,0.00,meteohub,2013-03-13 13:22:00,
2013-03-13 08:27:00,17.2,15.3,30.45,NNW,332,5.0,6.0,92,0.00,,,0.00,meteohub,2013-03-13 13:27:00,
2013-03-13 08:32:00,17.6,16.0,30.45,NNW,344,5.0,5.0,93,0.00,,,0.00,meteohub,2013-03-13 13:32:00,
2013-03-13 08:38:00,17.8,15.8,30.45,North,5,4.0,6.0,92,0.00,,,0.00,meteohub,2013-03-13 13:38:00,
2013-03-13 08:43:00,17.8,15.8,30.45,North,9,5.0,6.0,92,0.00,,,0.00,meteohub,2013-03-13 13:43:00,
2013-03-13 08:48:00,17.6,15.4,30.45,NNE,19,6.0,6.0,91,0.00,,,0.00,meteohub,2013-03-13 13:48:00,
2013-03-13 08:53:00,17.6,15.4,30.45,North,5,6.0,7.0,91,0.00,,,0.00,meteohub,2013-03-13 13:53:00,
2013-03-13 08:59:00,18.0,16.0,30.46,NNE,17,5.0,7.0,92,0.00,,,0.00,meteohub,2013-03-13 13:59:00,
2013-03-13 09:04:00,18.0,15.8,30.46,NNE,21,5.0,7.0,91,0.00,,,0.00,meteohub,2013-03-13 14:04:00,
2013-03-13 09:09:00,17.8,15.6,30.46,NNE,16,4.0,7.0,91,0.00,,,0.00,meteohub,2013-03-13 14:09:00,
2013-03-13 09:15:00,18.1,16.2,30.47,North,5,4.0,7.0,92,0.00,,,0.00,meteohub,2013-03-13 14:15:00,
2013-03-13 09:20:00,18.9,16.9,30.47,NNW,346,4.0,6.0,92,0.00,,,0.00,meteohub,2013-03-13 14:20:00,
2013-03-13 09:25:00,19.2,17.1,30.48,NW,325,5.0,6.0,91,0.00,,,0.00,meteohub,2013-03-13 14:25:00,
2013-03-13 09:30:00,19.8,17.6,30.47,North,11,3.0,5.0,91,0.00,,,0.00,meteohub,2013-03-13 14:30:00,
2013-03-13 09:35:00,19.9,17.4,30.48,NNE,28,4.0,5.0,90,0.00,,,0.00,meteohub,2013-03-13 14:35:00,
2013-03-13 09:41:00,20.5,18.0,30.49,NNW,345,0.0,5.0,90,0.00,,,0.00,meteohub,2013-03-13 14:41:00,
2013-03-13 09:46:00,21.0,18.5,30.49,NNW,334,0.0,5.0,90,0.00,,,0.00,meteohub,2013-03-13 14:46:00,
2013-03-13 09:52:00,21.4,18.7,30.50,NNW,334,0.0,5.0,89,0.00,,,0.00,meteohub,2013-03-13 14:52:00,
2013-03-13 09:57:00,21.7,18.7,30.50,NNW,334,0.0,2.0,88,0.00,,,0.00,meteohub,2013-03-13 14:57:00,
2013-03-13 10:02:00,21.9,18.7,30.50,NNW,334,0.0,0.0,87,0.00,,,0.00,meteohub,2013-03-13 15:02:00,
2013-03-13 10:07:00,22.5,19.2,30.51,SW,236,0.0,0.0,87,0.00,,,0.00,meteohub,2013-03-13 15:07:00,
2013-03-13 10:12:00,23.0,19.4,30.51,West,273,2.0,2.0,86,0.00,,,0.00,meteohub,2013-03-13 15:12:00,
2013-03-13 10:17:00,23.5,19.9,30.52,SW,230,2.0,2.0,86,0.00,,,0.00,meteohub,2013-03-13 15:17:00,
2013-03-13 10:23:00,23.5,19.4,30.52,SW,229,4.0,4.0,84,0.00,,,0.00,meteohub,2013-03-13 15:23:00,
2013-03-13 10:28:00,23.9,19.6,30.52,SW,217,5.0,5.0,83,0.00,,,0.00,meteohub,2013-03-13 15:28:00,
2013-03-13 10:33:00,23.7,19.0,30.52,NW,321,2.0,5.0,82,0.00,,,0.00,meteohub,2013-03-13 15:33:00,
2013-03-13 10:38:00,23.7,19.0,30.52,West,270,3.0,7.0,82,0.00,,,0.00,meteohub,2013-03-13 15:38:00,
2013-03-13 10:44:00,23.7,18.7,30.52,West,279,2.0,7.0,81,0.00,,,0.00,meteohub,2013-03-13 15:44:00,
2013-03-13 10:49:00,23.7,18.7,30.52,West,277,3.0,6.0,81,0.00,,,0.00,meteohub,2013-03-13 15:49:00,
2013-03-13 10:54:00,23.9,18.9,30.52,West,268,1.0,5.0,81,0.00,,,0.00,meteohub,2013-03-13 15:54:00,
2013-03-13 10:59:00,24.1,19.0,30.52,WNW,290,3.0,5.0,81,0.00,,,0.00,meteohub,2013-03-13 15:59:00,
2013-03-13 11:04:00,24.1,18.9,30.52,WNW,302,0.0,5.0,80,0.00,,,0.00,meteohub,2013-03-13 16:04:00,
2013-03-13 11:09:00,24.4,18.9,30.52,NW,306,0.0,4.0,79,0.00,,,0.00,meteohub,2013-03-13 16:09:00,
2013-03-13 11:14:00,25.2,19.6,30.52,NW,309,0.0,4.0,79,0.00,,,0.00,meteohub,2013-03-13 16:14:00,
2013-03-13 11:19:00,26.4,20.5,30.52,NW,309,0.0,2.0,78,0.00,,,0.00,meteohub,2013-03-13 16:19:00,
2013-03-13 11:25:00,27.0,19.4,30.52,NW,305,0.0,0.0,73,0.00,,,0.00,meteohub,2013-03-13 16:25:00,
2013-03-13 11:30:00,27.1,20.3,30.52,West,273,0.0,0.0,75,0.00,,,0.00,meteohub,2013-03-13 16:30:00,
2013-03-13 11:35:00,27.0,19.8,30.52,SW,235,1.0,3.0,74,0.00,,,0.00,meteohub,2013-03-13 16:35:00,
2013-03-13 11:40:00,27.0,19.4,30.52,West,279,0.0,3.0,73,0.00,,,0.00,meteohub,2013-03-13 16:40:00,
2013-03-13 11:46:00,27.1,19.9,30.52,South,179,5.0,5.0,74,0.00,,,0.00,meteohub,2013-03-13 16:46:00,
2013-03-13 11:51:00,28.4,21.6,30.52,SSW,193,0.0,5.0,75,0.00,,,0.00,meteohub,2013-03-13 16:51:00,
2013-03-13 11:56:00,29.7,21.7,30.52,South,190,0.0,5.0,72,0.00,,,0.00,meteohub,2013-03-13 16:56:00,
2013-03-13 12:01:00,29.8,20.7,30.52,SW,220,3.0,5.0,68,0.00,,,0.00,meteohub,2013-03-13 17:01:00,
2013-03-13 12:06:00,29.8,21.6,30.52,SSW,205,2.0,5.0,71,0.00,,,0.00,meteohub,2013-03-13 17:06:00,
2013-03-13 12:12:00,29.5,21.2,30.52,SE,141,1.0,5.0,71,0.00,,,0.00,meteohub,2013-03-13 17:12:00,
2013-03-13 12:17:00,29.7,21.4,30.52,SSE,163,0.0,4.0,71,0.00,,,0.00,meteohub,2013-03-13 17:17:00,
2013-03-13 12:22:00,29.7,21.4,30.52,SE,140,1.0,4.0,71,0.00,,,0.00,meteohub,2013-03-13 17:22:00,
2013-03-13 12:27:00,29.7,21.4,30.52,South,169,2.0,5.0,71,0.00,,,0.00,meteohub,2013-03-13 17:27:00,
2013-03-13 12:32:00,29.7,22.1,30.52,SSE,165,0.0,5.0,73,0.00,,,0.00,meteohub,2013-03-13 17:32:00,
2013-03-13 12:37:00,30.4,21.7,30.52,SSW,213,1.0,5.0,70,0.00,,,0.00,meteohub,2013-03-13 17:37:00,
2013-03-13 12:42:00,30.0,22.1,30.52,South,176,1.0,4.0,72,0.00,,,0.00,meteohub,2013-03-13 17:42:00,
2013-03-13 12:47:00,30.0,21.7,30.52,SE,128,0.0,4.0,71,0.00,,,0.00,meteohub,2013-03-13 17:47:00,
2013-03-13 12:53:00,30.4,21.7,30.51,SE,137,0.0,4.0,70,0.00,,,0.00,meteohub,2013-03-13 17:53:00,
2013-03-13 12:58:00,30.7,21.7,30.51,SE,132,1.0,4.0,69,0.00,,,0.00,meteohub,2013-03-13 17:58:00,
2013-03-13 13:03:00,30.6,21.6,30.51,ESE,122,0.0,4.0,69,0.00,,,0.00,meteohub,2013-03-13 18:03:00,
2013-03-13 13:08:00,30.6,21.6,30.51,SSE,148,0.0,4.0,69,0.00,,,0.00,meteohub,2013-03-13 18:08:00,
2013-03-13 13:14:00,30.6,21.6,30.51,SE,146,0.0,4.0,69,0.00,,,0.00,meteohub,2013-03-13 18:14:00,
2013-03-13 13:19:00,30.6,21.6,30.51,SE,125,2.0,5.0,69,0.00,,,0.00,meteohub,2013-03-13 18:19:00,
2013-03-13 13:24:00,30.4,21.4,30.50,SE,142,4.0,5.0,69,0.00,,,0.00,meteohub,2013-03-13 18:24:00,
2013-03-13 13:29:00,30.0,21.4,30.50,SSE,168,1.0,7.0,70,0.00,,,0.00,meteohub,2013-03-13 18:29:00,
2013-03-13 13:34:00,30.4,22.1,30.50,South,182,4.0,7.0,71,0.00,,,0.00,meteohub,2013-03-13 18:34:00,
2013-03-13 13:40:00,30.4,21.7,30.49,SE,146,6.0,7.0,70,0.00,,,0.00,meteohub,2013-03-13 18:40:00,
2013-03-13 13:45:00,30.4,21.7,30.49,SE,143,6.0,6.0,70,0.00,,,0.00,meteohub,2013-03-13 18:45:00,
2013-03-13 13:50:00,30.7,22.5,30.49,SE,142,5.0,9.0,71,0.00,,,0.00,meteohub,2013-03-13 18:50:00,
2013-03-13 13:55:00,30.9,22.6,30.49,SSE,163,2.0,9.0,71,0.00,,,0.00,meteohub,2013-03-13 18:55:00,
2013-03-13 14:00:00,30.9,22.6,30.48,SSE,148,5.0,8.0,71,0.00,,,0.00,meteohub,2013-03-13 19:00:00,
2013-03-13 14:06:00,31.1,23.2,30.48,SSE,148,5.0,8.0,72,0.00,,,0.00,meteohub,2013-03-13 19:06:00,
2013-03-13 14:11:00,31.1,22.8,30.48,SE,142,9.0,9.0,71,0.00,,,0.00,meteohub,2013-03-13 19:11:00,
2013-03-13 14:16:00,31.1,23.5,30.47,SE,133,6.0,9.0,73,0.00,,,0.00,meteohub,2013-03-13 19:16:00,
2013-03-13 14:22:00,31.3,23.7,30.47,SE,128,5.0,10.0,73,0.00,,,0.00,meteohub,2013-03-13 19:22:00,
2013-03-13 14:27:00,31.6,23.7,30.47,SE,132,6.0,10.0,72,0.00,,,0.00,meteohub,2013-03-13 19:27:00,
2013-03-13 14:32:00,32.0,23.7,30.47,SE,146,4.0,10.0,71,0.00,,,0.00,meteohub,2013-03-13 19:32:00,
2013-03-13 14:37:00,32.4,24.1,30.46,ESE,112,7.0,11.0,71,0.00,,,0.00,meteohub,2013-03-13 19:37:00,
2013-03-13 14:42:00,32.4,24.1,30.46,South,180,2.0,11.0,71,0.00,,,0.00,meteohub,2013-03-13 19:42:00,
2013-03-13 14:48:00,33.1,24.6,30.46,South,184,4.0,11.0,71,0.00,,,0.00,meteohub,2013-03-13 19:48:00,
2013-03-13 14:53:00,33.3,24.6,30.47,SSE,163,2.0,11.0,70,0.00,,,0.00,meteohub,2013-03-13 19:53:00,
2013-03-13 14:58:00,33.4,24.4,30.47,SE,125,5.0,11.0,69,0.00,,,0.00,meteohub,2013-03-13 19:58:00,
2013-03-13 15:03:00,33.6,24.6,30.46,SE,138,7.0,9.0,69,0.00,,,0.00,meteohub,2013-03-13 20:03:00,
2013-03-13 15:09:00,34.0,25.2,30.45,SE,132,9.0,10.0,70,0.00,,,0.00,meteohub,2013-03-13 20:09:00,
2013-03-13 15:14:00,34.2,25.0,30.45,SE,132,9.0,10.0,69,0.00,,,0.00,meteohub,2013-03-13 20:14:00,
2013-03-13 15:19:00,34.5,25.3,30.45,SSE,151,5.0,12.0,69,0.00,,,0.00,meteohub,2013-03-13 20:19:00,
2013-03-13 15:24:00,35.1,25.9,30.44,SE,124,8.0,12.0,69,0.00,,,0.00,meteohub,2013-03-13 20:24:00,
2013-03-13 15:29:00,34.9,25.3,30.44,SE,146,8.0,12.0,68,0.00,,,0.00,meteohub,2013-03-13 20:29:00,
2013-03-13 15:35:00,35.4,25.9,30.44,SE,132,7.0,12.0,68,0.00,,,0.00,meteohub,2013-03-13 20:35:00,
2013-03-13 15:40:00,36.0,26.1,30.44,SE,138,12.0,12.0,67,0.00,,,0.00,meteohub,2013-03-13 20:40:00,
2013-03-13 15:45:00,36.0,26.1,30.43,SE,134,9.0,12.0,67,0.00,,,0.00,meteohub,2013-03-13 20:45:00,
2013-03-13 15:50:00,36.0,26.4,30.43,SE,134,11.0,14.0,68,0.00,,,0.00,meteohub,2013-03-13 20:50:00,
2013-03-13 15:55:00,35.8,25.2,30.43,SE,130,11.0,14.0,65,0.00,,,0.00,meteohub,2013-03-13 20:55:00,
2013-03-13 16:00:00,35.8,26.6,30.43,SE,133,5.0,15.0,69,0.00,,,0.00,meteohub,2013-03-13 21:00:00,
2013-03-13 16:06:00,36.0,26.1,30.43,SSE,149,9.0,15.0,67,0.00,,,0.00,meteohub,2013-03-13 21:06:00,
2013-03-13 16:11:00,35.6,25.7,30.43,SE,142,11.0,15.0,67,0.00,,,0.00,meteohub,2013-03-13 21:11:00,
2013-03-13 16:16:00,35.6,26.4,30.43,ESE,114,12.0,15.0,69,0.00,,,0.00,meteohub,2013-03-13 21:16:00,
2013-03-13 16:21:00,36.0,27.1,30.43,SE,140,11.0,15.0,70,0.00,,,0.00,meteohub,2013-03-13 21:21:00,
2013-03-13 16:26:00,36.1,27.3,30.43,SSE,152,6.0,14.0,70,0.00,,,0.00,meteohub,2013-03-13 21:26:00,
2013-03-13 16:32:00,36.0,26.4,30.43,ESE,119,9.0,13.0,68,0.00,,,0.00,meteohub,2013-03-13 21:32:00,
2013-03-13 16:37:00,36.1,26.6,30.42,SE,134,14.0,15.0,68,0.00,,,0.00,meteohub,2013-03-13 21:37:00,
2013-03-13 16:42:00,36.3,26.8,30.43,SE,128,8.0,15.0,68,0.00,,,0.00,meteohub,2013-03-13 21:42:00,
2013-03-13 16:47:00,36.9,27.3,30.42,SE,134,6.0,15.0,68,0.00,,,0.00,meteohub,2013-03-13 21:47:00,
2013-03-13 16:53:00,37.0,26.4,30.42,SSE,150,6.0,15.0,65,0.00,,,0.00,meteohub,2013-03-13 21:53:00,
2013-03-13 16:58:00,37.0,26.4,30.42,SE,140,9.0,16.0,65,0.00,,,0.00,meteohub,2013-03-13 21:58:00,
2013-03-13 17:03:00,37.0,26.8,30.41,SSE,147,8.0,16.0,66,0.00,,,0.00,meteohub,2013-03-13 22:03:00,
2013-03-13 17:08:00,37.2,26.2,30.41,SE,134,15.0,16.0,64,0.00,,,0.00,meteohub,2013-03-13 22:08:00,
2013-03-13 17:13:00,36.9,25.5,30.41,SE,144,11.0,15.0,63,0.00,,,0.00,meteohub,2013-03-13 22:13:00,
2013-03-13 17:19:00,37.0,25.7,30.40,SE,142,14.0,15.0,63,0.00,,,0.00,meteohub,2013-03-13 22:19:00,
2013-03-13 17:24:00,37.0,26.1,30.40,SE,139,11.0,15.0,64,0.00,,,0.00,meteohub,2013-03-13 22:24:00,
2013-03-13 17:29:00,37.2,26.2,30.40,SE,130,11.0,15.0,64,0.00,,,0.00,meteohub,2013-03-13 22:29:00,
2013-03-13 17:34:00,37.2,26.6,30.40,SE,138,14.0,16.0,65,0.00,,,0.00,meteohub,2013-03-13 22:34:00,
2013-03-13 17:40:00,37.2,27.0,30.40,SE,142,11.0,16.0,66,0.00,,,0.00,meteohub,2013-03-13 22:40:00,
2013-03-13 17:45:00,37.2,27.0,30.40,SE,140,10.0,16.0,66,0.00,,,0.00,meteohub,2013-03-13 22:45:00,
2013-03-13 17:50:00,37.4,27.5,30.39,ESE,116,6.0,15.0,67,0.00,,,0.00,meteohub,2013-03-13 22:50:00,
2013-03-13 17:55:00,37.4,27.5,30.39,SE,130,7.0,15.0,67,0.00,,,0.00,meteohub,2013-03-13 22:55:00,
2013-03-13 18:00:00,37.6,27.7,30.39,SE,136,9.0,15.0,67,0.00,,,0.00,meteohub,2013-03-13 23:00:00,
2013-03-13 18:05:00,37.0,27.1,30.38,ESE,123,11.0,15.0,67,0.00,,,0.00,meteohub,2013-03-13 23:05:00,
2013-03-13 18:11:00,37.0,27.5,30.38,SE,132,11.0,15.0,68,0.00,,,0.00,meteohub,2013-03-13 23:11:00,
2013-03-13 18:16:00,37.0,28.2,30.37,SE,130,8.0,15.0,70,0.00,,,0.00,meteohub,2013-03-13 23:16:00,
2013-03-13 18:21:00,37.0,27.9,30.37,ESE,123,9.0,14.0,69,0.00,,,0.00,meteohub,2013-03-13 23:21:00,
2013-03-13 18:26:00,37.0,27.9,30.37,SE,128,11.0,13.0,69,0.00,,,0.00,meteohub,2013-03-13 23:26:00,
2013-03-13 18:32:00,37.0,28.2,30.37,SE,136,8.0,13.0,70,0.00,,,0.00,meteohub,2013-03-13 23:32:00,
2013-03-13 18:37:00,37.0,28.2,30.37,SE,132,7.0,12.0,70,0.00,,,0.00,meteohub,2013-03-13 23:37:00,
2013-03-13 18:42:00,37.0,28.2,30.37,SE,128,8.0,11.0,70,0.00,,,0.00,meteohub,2013-03-13 23:42:00,
2013-03-13 18:47:00,37.0,28.2,30.37,SE,140,8.0,12.0,70,0.00,,,0.00,meteohub,2013-03-13 23:47:00,
2013-03-13 18:52:00,36.7,27.5,30.36,SE,128,9.0,12.0,69,0.00,,,0.00,meteohub,2013-03-13 23:52:00,
2013-03-13 18:57:00,36.5,27.3,30.36,SE,129,8.0,13.0,69,0.00,,,0.00,meteohub,2013-03-13 23:57:00,
2013-03-13 19:02:00,36.3,27.1,30.36,ESE,123,11.0,13.0,69,0.00,,,0.00,meteohub,2013-03-14 00:02:00,
2013-03-13 19:07:00,36.1,27.0,30.36,ESE,113,9.0,13.0,69,0.00,,,0.00,meteohub,2013-03-14 00:07:00,
2013-03-13 19:13:00,36.0,27.1,30.36,ESE,115,9.0,13.0,70,0.00,,,0.00,meteohub,2013-03-14 00:13:00,
2013-03-13 19:18:00,35.8,27.3,30.36,ESE,113,7.0,13.0,71,0.00,,,0.00,meteohub,2013-03-14 00:18:00,
2013-03-13 19:23:00,35.2,27.1,30.36,ESE,122,9.0,11.0,72,0.00,,,0.00,meteohub,2013-03-14 00:23:00,
2013-03-13 19:28:00,35.1,27.3,30.36,ESE,113,8.0,11.0,73,0.00,,,0.00,meteohub,2013-03-14 00:28:00,
2013-03-13 19:34:00,34.7,27.0,30.36,ESE,113,8.0,11.0,73,0.00,,,0.00,meteohub,2013-03-14 00:34:00,
2013-03-13 19:39:00,34.5,27.1,30.36,ESE,117,8.0,12.0,74,0.00,,,0.00,meteohub,2013-03-14 00:39:00,
2013-03-13 19:44:00,34.5,26.8,30.36,ESE,119,9.0,12.0,73,0.00,,,0.00,meteohub,2013-03-14 00:44:00,
2013-03-13 19:49:00,34.5,26.8,30.35,SE,126,9.0,12.0,73,0.00,,,0.00,meteohub,2013-03-14 00:49:00,
2013-03-13 19:55:00,34.5,26.8,30.35,SE,128,7.0,12.0,73,0.00,,,0.00,meteohub,2013-03-14 00:55:00,
2013-03-13 20:00:00,34.3,26.6,30.35,SE,134,9.0,13.0,73,0.00,,,0.00,meteohub,2013-03-14 01:00:00,
2013-03-13 20:06:00,34.2,26.4,30.35,SE,134,11.0,12.0,73,0.00,,,0.00,meteohub,2013-03-14 01:06:00,
2013-03-13 20:11:00,34.2,26.4,30.35,SE,132,9.0,12.0,73,0.00,,,0.00,meteohub,2013-03-14 01:11:00,
2013-03-13 20:17:00,34.0,26.2,30.35,SE,124,11.0,12.0,73,0.00,,,0.00,meteohub,2013-03-14 01:17:00,
2013-03-13 20:22:00,34.0,26.2,30.34,ESE,120,11.0,12.0,73,0.00,,,0.00,meteohub,2013-03-14 01:22:00,
2013-03-13 20:27:00,34.0,25.9,30.34,SE,140,8.0,14.0,72,0.00,,,0.00,meteohub,2013-03-14 01:27:00,
2013-03-13 20:32:00,33.8,25.7,30.34,SE,132,8.0,14.0,72,0.00,,,0.00,meteohub,2013-03-14 01:32:00,
2013-03-13 20:37:00,33.6,25.5,30.34,SE,134,6.0,14.0,72,0.00,,,0.00,meteohub,2013-03-14 01:37:00,
2013-03-13 20:42:00,33.8,25.3,30.34,SE,126,11.0,13.0,71,0.00,,,0.00,meteohub,2013-03-14 01:42:00,
2013-03-13 20:47:00,33.6,25.2,30.34,ESE,120,12.0,13.0,71,0.00,,,0.00,meteohub,2013-03-14 01:47:00,
2013-03-13 20:52:00,33.6,25.2,30.33,SSE,147,9.0,13.0,71,0.00,,,0.00,meteohub,2013-03-14 01:52:00,
2013-03-13 20:57:00,33.6,25.2,30.33,SE,126,14.0,14.0,71,0.00,,,0.00,meteohub,2013-03-14 01:57:00,
2013-03-13 21:02:00,34.0,25.2,30.33,SE,134,9.0,15.0,70,0.00,,,0.00,meteohub,2013-03-14 02:02:00,
2013-03-13 21:07:00,34.0,25.2,30.32,SE,126,9.0,15.0,70,0.00,,,0.00,meteohub,2013-03-14 02:07:00,
2013-03-13 21:12:00,34.0,24.8,30.32,ESE,121,14.0,16.0,69,0.00,,,0.00,meteohub,2013-03-14 02:12:00,
2013-03-13 21:17:00,34.0,24.8,30.32,ESE,123,14.0,16.0,69,0.00,,,0.00,meteohub,2013-03-14 02:17:00,
2013-03-13 21:22:00,33.8,24.8,30.32,SE,131,13.0,16.0,69,0.00,,,0.00,meteohub,2013-03-14 02:22:00,
2013-03-13 21:28:00,34.0,24.8,30.32,SE,135,12.0,16.0,69,0.00,,,0.00,meteohub,2013-03-14 02:28:00,
2013-03-13 21:33:00,33.6,24.8,30.32,SE,130,13.0,17.0,70,0.00,,,0.00,meteohub,2013-03-14 02:33:00,
2013-03-13 21:38:00,33.4,25.0,30.33,SE,135,11.0,17.0,71,0.00,,,0.00,meteohub,2013-03-14 02:38:00,
2013-03-13 21:43:00,33.3,24.8,30.32,SSE,148,11.0,17.0,71,0.00,,,0.00,meteohub,2013-03-14 02:43:00,
2013-03-13 21:49:00,33.1,25.0,30.32,ESE,123,12.0,15.0,72,0.00,,,0.00,meteohub,2013-03-14 02:49:00,
2013-03-13 21:54:00,32.7,24.6,30.32,SE,125,9.0,14.0,72,0.00,,,0.00,meteohub,2013-03-14 02:54:00,
2013-03-13 21:59:00,32.7,25.0,30.32,SE,138,11.0,14.0,73,0.00,,,0.00,meteohub,2013-03-14 02:59:00,
2013-03-13 22:04:00,32.5,24.8,30.32,SE,126,11.0,15.0,73,0.00,,,0.00,meteohub,2013-03-14 03:04:00,
2013-03-13 22:09:00,32.4,24.6,30.32,SE,134,9.0,15.0,73,0.00,,,0.00,meteohub,2013-03-14 03:09:00,
2013-03-13 22:15:00,32.4,25.0,30.32,SE,140,8.0,14.0,74,0.00,,,0.00,meteohub,2013-03-14 03:15:00,
2013-03-13 22:20:00,32.2,24.8,30.32,SE,130,9.0,13.0,74,0.00,,,0.00,meteohub,2013-03-14 03:20:00,
2013-03-13 22:25:00,32.2,24.8,30.32,SE,142,10.0,13.0,74,0.00,,,0.00,meteohub,2013-03-14 03:25:00,
2013-03-13 22:30:00,32.4,25.0,30.32,SE,141,9.0,13.0,74,0.00,,,0.00,meteohub,2013-03-14 03:30:00,
2013-03-13 22:35:00,32.2,25.2,30.32,SE,141,10.0,13.0,75,0.00,,,0.00,meteohub,2013-03-14 03:35:00,
2013-03-13 22:40:00,32.2,25.2,30.32,SE,143,9.0,13.0,75,0.00,,,0.00,meteohub,2013-03-14 03:40:00,
2013-03-13 22:45:00,32.2,25.2,30.31,SE,128,9.0,13.0,75,0.00,,,0.00,meteohub,2013-03-14 03:45:00,
2013-03-13 22:50:00,32.4,25.3,30.31,SE,137,13.0,13.0,75,0.00,,,0.00,meteohub,2013-03-14 03:50:00,
2013-03-13 22:56:00,32.5,25.2,30.31,SE,136,12.0,15.0,74,0.00,,,0.00,meteohub,2013-03-14 03:56:00,
2013-03-13 23:00:00,32.7,25.3,30.31,SE,128,11.0,15.0,74,0.00,,,0.00,meteohub,2013-03-14 04:00:00,
2013-03-13 23:01:00,32.9,25.5,30.31,SE,140,10.0,15.0,74,0.00,,,0.00,meteohub,2013-03-14 04:01:00,
2013-03-13 23:02:00,33.1,25.7,30.31,SE,146,13.0,15.0,74,0.00,,,0.00,meteohub,2013-03-14 04:02:00,
2013-03-13 23:07:00,33.3,25.5,30.31,SSE,157,10.0,15.0,73,0.00,,,0.00,meteohub,2013-03-14 04:07:00,
2013-03-13 23:12:00,33.1,25.3,30.31,SE,126,13.0,15.0,73,0.00,,,0.00,meteohub,2013-03-14 04:12:00,
2013-03-13 23:17:00,33.1,25.3,30.31,ESE,121,13.0,15.0,73,0.00,,,0.00,meteohub,2013-03-14 04:17:00,
2013-03-13 23:23:00,33.1,25.3,30.31,ESE,121,9.0,15.0,73,0.00,,,0.00,meteohub,2013-03-14 04:23:00,
2013-03-13 23:28:00,33.1,25.3,30.30,SE,128,14.0,16.0,73,0.00,,,0.00,meteohub,2013-03-14 04:28:00,
2013-03-13 23:33:00,33.1,25.3,30.30,SE,139,11.0,16.0,73,0.00,,,0.00,meteohub,2013-03-14 04:33:00,
2013-03-13 23:38:00,33.1,25.3,30.30,SE,130,12.0,16.0,73,0.00,,,0.00,meteohub,2013-03-14 04:38:00,
2013-03-13 23:43:00,33.1,25.3,30.30,SSE,150,13.0,17.0,73,0.00,,,0.00,meteohub,2013-03-14 04:43:00,
2013-03-13 23:49:00,33.1,25.0,30.30,SE,126,14.0,17.0,72,0.00,,,0.00,meteohub,2013-03-14 04:49:00,
2013-03-13 23:54:00,33.1,25.0,30.30,SE,134,12.0,18.0,72,0.00,,,0.00,meteohub,2013-03-14 04:54:00,
2013-03-13 23:59:00,33.1,25.0,30.30,SE,140,13.0,18.0,72,0.00,,,0.00,meteohub,2013-03-14 04:59:00,